createdAt,value
2023-03-29T00:01:42.114Z,62.77
2023-03-29T00:04:46.166Z,63.01
2023-03-29T00:07:54.380Z,63.67
2023-03-29T00:10:59.372Z,62.73
2023-03-29T00:14:02.235Z,63.07
2023-03-29T00:17:05.421Z,63.32
2023-03-29T00:20:10.386Z,63.23
2023-03-29T00:23:13.466Z,63.96
2023-03-29T00:26:16.485Z,61.79
2023-03-29T00:29:19.466Z,63.08
2023-03-29T00:32:22.542Z,62.96
2023-03-29T00:35:25.752Z,62.27
2023-03-29T00:38:28.921Z,63.27
2023-03-29T00:41:31.861Z,61.61
2023-03-29T00:44:58.109Z,61.78
2023-03-29T00:48:04.879Z,63.85
2023-03-29T00:51:10.275Z,63.94
2023-03-29T00:54:18.806Z,62.43
2023-03-29T00:57:26.472Z,64.96
2023-03-29T01:00:35.201Z,64.86
2023-03-29T01:03:48.803Z,63.84
2023-03-29T01:07:02.909Z,64.97
2023-03-29T01:10:12.799Z,65.94
2023-03-29T01:13:21.945Z,63.84
2023-03-29T01:16:28.723Z,64.83
2023-03-29T01:19:42.338Z,64.90
2023-03-29T01:23:16.989Z,63.53
2023-03-29T01:26:31.895Z,63.32
2023-03-29T01:29:39.307Z,64.43
2023-03-29T01:32:59.304Z,63.29
2023-03-29T01:36:21.233Z,63.59
2023-03-29T01:39:24.614Z,61.19
2023-03-29T01:42:54.101Z,61.46
2023-03-29T01:46:03.241Z,60.32
2023-03-29T01:49:14.459Z,62.27
2023-03-29T01:52:24.225Z,64.06
2023-03-29T01:55:34.930Z,62.43
2023-03-29T01:58:46.431Z,61.12
2023-03-29T02:01:54.874Z,62.84
2023-03-29T02:04:59.440Z,62.47
2023-03-29T02:08:03.693Z,61.16
2023-03-29T02:11:08.917Z,62.18
2023-03-29T02:14:12.014Z,64.25
2023-03-29T02:17:25.974Z,64.93
2023-03-29T02:20:47.378Z,65.24
2023-03-29T02:23:54.783Z,64.92
2023-03-29T02:26:59.228Z,66.76
2023-03-29T02:30:02.148Z,66.75
2023-03-29T02:33:21.984Z,68.21
2023-03-29T02:36:38.308Z,65.75
2023-03-29T02:39:42.281Z,66.86
2023-03-29T02:42:46.012Z,66.02
2023-03-29T02:45:50.463Z,67.11
2023-03-29T02:48:54.993Z,68.08
2023-03-29T02:52:02.847Z,66.55
2023-03-29T02:55:09.871Z,69.69
2023-03-29T02:58:15.569Z,68.44
2023-03-29T03:01:20.449Z,67.07
2023-03-29T03:04:26.059Z,67.35
2023-03-29T03:07:29.055Z,67.25
2023-03-29T03:10:33.868Z,69.68
2023-03-29T03:13:36.747Z,68.69
2023-03-29T03:16:39.625Z,70.60
2023-03-29T03:19:42.681Z,71.83
2023-03-29T03:22:49.434Z,70.01
2023-03-29T03:25:52.845Z,68.89
2023-03-29T03:28:56.590Z,69.04
2023-03-29T03:32:04.319Z,69.09
2023-03-29T03:35:11.869Z,69.16
2023-03-29T03:38:16.703Z,69.51
2023-03-29T03:41:20.100Z,69.05
2023-03-29T03:44:22.827Z,70.08
2023-03-29T03:47:28.311Z,71.84
2023-03-29T03:50:31.481Z,69.88
2023-03-29T03:53:35.139Z,69.95
2023-03-29T03:56:39.635Z,72.55
2023-03-29T03:59:42.925Z,73.22
2023-03-29T04:02:47.394Z,70.73
2023-03-29T04:05:50.637Z,71.76
2023-03-29T04:08:54.315Z,72.11
2023-03-29T04:12:01.587Z,73.65
2023-03-29T04:15:06.450Z,72.47
2023-03-29T04:18:09.698Z,75.91
2023-03-29T04:21:13.768Z,74.64
2023-03-29T04:24:17.290Z,74.11
2023-03-29T04:27:20.753Z,74.73
2023-03-29T04:30:23.944Z,74.06
2023-03-29T04:33:29.523Z,74.62
2023-03-29T04:36:34.270Z,72.11
2023-03-29T04:39:38.008Z,70.48
2023-03-29T04:42:45.940Z,74.55
2023-03-29T04:45:48.986Z,72.01
2023-03-29T04:48:54.056Z,70.28
2023-03-29T04:51:58.409Z,69.13
2023-03-29T04:55:03.257Z,68.92
2023-03-29T04:58:07.409Z,68.90
2023-03-29T05:01:10.988Z,67.90
2023-03-29T05:04:14.510Z,69.30
2023-03-29T05:07:19.252Z,70.05
2023-03-29T05:10:22.611Z,71.16
2023-03-29T05:13:25.749Z,70.82
2023-03-29T05:16:30.275Z,72.65
2023-03-29T05:19:33.734Z,72.63
2023-03-29T05:22:38.497Z,70.78
2023-03-29T05:25:43.920Z,71.23
2023-03-29T05:28:46.557Z,69.44
2023-03-29T05:31:49.709Z,68.09
2023-03-29T05:34:53.373Z,65.71
2023-03-29T05:37:56.930Z,66.72
2023-03-29T05:41:01.368Z,67.39
2023-03-29T05:44:07.331Z,65.64
2023-03-29T05:47:10.773Z,65.76
2023-03-29T05:50:13.764Z,65.71
2023-03-29T05:53:17.517Z,63.69
2023-03-29T05:56:20.683Z,63.15
2023-03-29T05:59:24.568Z,62.79
2023-03-29T06:02:29.111Z,62.55
2023-03-29T06:05:33.055Z,62.23
2023-03-29T06:08:36.313Z,62.55
2023-03-29T06:11:40.939Z,60.29
2023-03-29T06:14:48.228Z,59.90
2023-03-29T06:17:51.752Z,60.18
2023-03-29T06:20:54.557Z,58.71
2023-03-29T06:23:58.745Z,57.43
2023-03-29T06:27:03.180Z,56.29
2023-03-29T06:30:07.176Z,54.19
2023-03-29T06:33:10.621Z,53.95
2023-03-29T06:36:16.365Z,54.64
2023-03-29T06:39:19.796Z,53.58
2023-03-29T06:42:24.191Z,52.99
2023-03-29T06:48:39.416Z,51.82
2023-03-29T06:51:42.686Z,52.07
2023-03-29T06:54:46.676Z,52.17
2023-03-29T06:57:49.552Z,49.92
2023-03-29T07:00:54.061Z,50.41
2023-03-29T07:03:58.681Z,50.49
2023-03-29T07:07:03.515Z,49.13
2023-03-29T07:10:07.446Z,49.55
2023-03-29T07:13:15.754Z,46.93
2023-03-29T07:16:19.535Z,46.39
2023-03-29T07:19:25.309Z,45.83
2023-03-29T07:22:31.655Z,45.91
2023-03-29T07:25:35.405Z,42.99
2023-03-29T07:28:39.595Z,44.76
2023-03-29T07:31:43.853Z,46.55
2023-03-29T07:34:50.232Z,42.13
2023-03-29T07:37:55.686Z,42.42
2023-03-29T07:41:00.044Z,41.81
2023-03-29T07:44:09.394Z,40.00
2023-03-29T07:47:12.726Z,41.80
2023-03-29T07:50:17.486Z,40.14
2023-03-29T07:53:21.167Z,39.41
2023-03-29T07:56:25.452Z,41.69
2023-03-29T07:59:28.308Z,41.09
2023-03-29T08:02:32.051Z,40.11
2023-03-29T08:05:41.185Z,37.99
2023-03-29T08:08:45.406Z,38.29
2023-03-29T08:11:48.998Z,37.31
2023-03-29T08:14:51.900Z,37.57
2023-03-29T08:17:55.108Z,37.72
2023-03-29T08:20:58.202Z,38.26
2023-03-29T08:24:01.239Z,40.99
2023-03-29T08:27:04.265Z,38.93
2023-03-29T08:30:09.555Z,37.58
2023-03-29T08:33:13.160Z,38.54
2023-03-29T08:36:16.748Z,39.24
2023-03-29T08:39:19.842Z,38.12
2023-03-29T08:42:33.050Z,36.78
2023-03-29T08:46:01.693Z,37.31
2023-03-29T08:49:09.533Z,37.91
2023-03-29T08:52:24.038Z,36.35
2023-03-29T08:55:35.467Z,37.21
2023-03-29T08:58:45.773Z,36.56
2023-03-29T09:01:53.270Z,35.29
2023-03-29T09:05:06.755Z,34.29
2023-03-29T09:08:18.937Z,34.19
2023-03-29T09:11:24.768Z,35.37
2023-03-29T09:15:06.856Z,34.14
2023-03-29T09:18:22.360Z,33.98
2023-03-29T09:21:37.778Z,35.04
2023-03-29T09:25:05.999Z,34.02
2023-03-29T09:28:27.198Z,33.30
2023-03-29T09:31:37.348Z,32.81
2023-03-29T09:34:48.075Z,33.37
2023-03-29T09:37:53.295Z,35.87
2023-03-29T09:41:03.136Z,34.66
2023-03-29T09:44:17.709Z,33.23
2023-03-29T09:47:40.866Z,31.59
2023-03-29T09:50:47.548Z,32.96
2023-03-29T09:53:50.724Z,31.82
2023-03-29T09:56:56.657Z,31.68
2023-03-29T10:00:05.808Z,32.41
2023-03-29T10:03:25.109Z,31.27
2023-03-29T10:06:29.547Z,30.55
2023-03-29T10:09:34.324Z,30.75
2023-03-29T10:12:41.707Z,32.05
2023-03-29T10:15:44.448Z,30.89
2023-03-29T10:18:47.540Z,32.97
2023-03-29T10:21:52.888Z,30.82
2023-03-29T10:24:58.074Z,30.97
2023-03-29T10:28:11.852Z,32.48
2023-03-29T10:31:24.911Z,34.24
2023-03-29T10:34:28.242Z,32.31
2023-03-29T10:37:31.695Z,33.42
2023-03-29T10:40:40.423Z,32.18
2023-03-29T10:43:46.897Z,33.71
2023-03-29T10:46:49.660Z,32.46
2023-03-29T10:49:58.936Z,33.53
2023-03-29T10:53:03.438Z,32.56
2023-03-29T10:56:33.553Z,32.08
2023-03-29T10:59:57.727Z,32.60
2023-03-29T11:03:21.416Z,31.87
2023-03-29T11:06:32.625Z,31.64
2023-03-29T11:10:00.504Z,33.06
2023-03-29T11:13:41.843Z,31.40
2023-03-29T11:17:03.115Z,33.43
2023-03-29T11:20:19.718Z,31.13
2023-03-29T11:23:37.967Z,32.69
2023-03-29T11:27:03.614Z,32.35
2023-03-29T11:30:42.181Z,34.11
2023-03-29T11:33:44.832Z,33.08
2023-03-29T11:36:58.402Z,34.95
2023-03-29T11:40:05.812Z,34.76
2023-03-29T11:43:15.591Z,34.20
2023-03-29T11:46:27.335Z,33.63
2023-03-29T11:49:43.162Z,33.62
2023-03-29T11:53:05.195Z,35.04
2023-03-29T11:56:15.715Z,33.50
2023-03-29T11:59:41.947Z,35.44
2023-03-29T12:02:53.726Z,34.62
2023-03-29T12:06:07.916Z,34.12
2023-03-29T12:09:34.239Z,33.97
2023-03-29T12:12:45.679Z,34.74
2023-03-29T12:15:57.036Z,33.98
2023-03-29T12:19:09.266Z,33.96
2023-03-29T12:22:11.885Z,34.61
2023-03-29T12:25:21.899Z,34.62
2023-03-29T12:28:58.684Z,33.71
2023-03-29T12:32:35.171Z,33.28
2023-03-29T12:36:16.526Z,35.64
2023-03-29T12:39:24.307Z,33.99
2023-03-29T12:42:29.400Z,33.70
2023-03-29T12:45:48.557Z,34.18
2023-03-29T12:48:57.468Z,33.48
2023-03-29T12:52:03.414Z,34.95
2023-03-29T12:55:42.413Z,34.95
2023-03-29T12:59:07.737Z,32.94
2023-03-29T13:02:14.003Z,32.74
2023-03-29T13:05:35.240Z,33.34
2023-03-29T13:08:43.215Z,33.97
2023-03-29T13:11:53.589Z,35.02
2023-03-29T13:15:14.536Z,36.07
2023-03-29T13:18:20.470Z,33.76
2023-03-29T13:21:23.137Z,33.70
2023-03-29T13:24:47.999Z,33.86
2023-03-29T13:28:14.114Z,32.90
2023-03-29T13:31:47.619Z,33.86
2023-03-29T13:35:04.366Z,33.53
2023-03-29T13:38:26.345Z,33.66
2023-03-29T13:41:38.187Z,34.60
2023-03-29T13:44:49.032Z,34.14
2023-03-29T13:48:06.502Z,34.14
2023-03-29T13:51:18.717Z,34.69
2023-03-29T13:54:40.732Z,34.37
2023-03-29T13:57:56.895Z,34.69
2023-03-29T14:01:07.589Z,33.11
2023-03-29T14:04:18.159Z,34.16
2023-03-29T14:07:26.265Z,36.07
2023-03-29T14:10:39.408Z,33.52
2023-03-29T14:13:43.361Z,33.76
2023-03-29T14:16:46.568Z,33.97
2023-03-29T14:19:49.544Z,35.08
2023-03-29T14:22:53.621Z,34.72
2023-03-29T14:26:13.387Z,35.09
2023-03-29T14:29:18.229Z,34.52
2023-03-29T14:32:29.862Z,34.54
2023-03-29T14:35:33.648Z,35.31
2023-03-29T14:38:37.731Z,34.29
2023-03-29T14:41:47.265Z,34.59
2023-03-29T14:44:51.138Z,36.68
2023-03-29T14:47:54.305Z,34.96
2023-03-29T14:50:57.277Z,35.96
2023-03-29T14:54:03.882Z,36.50
2023-03-29T14:57:07.401Z,35.27
2023-03-29T15:00:19.458Z,37.86
2023-03-29T15:03:29.327Z,35.98
2023-03-29T15:06:37.225Z,35.80
2023-03-29T15:09:40.775Z,35.46
2023-03-29T15:12:45.051Z,35.32
2023-03-29T15:15:52.644Z,35.42
2023-03-29T15:18:56.650Z,35.77
2023-03-29T15:22:06.121Z,35.51
2023-03-29T15:25:16.841Z,35.46
2023-03-29T15:28:32.846Z,36.64
2023-03-29T15:31:38.591Z,35.66
2023-03-29T15:34:41.261Z,36.88
2023-03-29T15:37:44.250Z,36.08
2023-03-29T15:40:48.044Z,38.14
2023-03-29T15:43:51.523Z,38.02
2023-03-29T15:47:00.009Z,37.15
2023-03-29T15:50:03.169Z,36.70
2023-03-29T15:53:14.463Z,37.35
2023-03-29T15:56:20.498Z,37.40
2023-03-29T15:59:23.284Z,37.96
2023-03-29T16:02:26.761Z,37.87
2023-03-29T16:05:29.978Z,38.25
2023-03-29T16:08:32.825Z,38.16
2023-03-29T16:11:36.092Z,38.19
2023-03-29T16:14:39.246Z,38.65
2023-03-29T16:17:42.227Z,39.52
2023-03-29T16:20:44.978Z,39.54
2023-03-29T16:23:48.192Z,39.19
2023-03-29T16:26:54.016Z,39.37
2023-03-29T16:29:59.079Z,39.88
2023-03-29T16:33:06.433Z,39.66
2023-03-29T16:36:10.709Z,39.99
2023-03-29T16:39:13.817Z,40.27
2023-03-29T16:42:16.814Z,39.91
2023-03-29T16:45:19.840Z,39.79
2023-03-29T16:48:23.848Z,40.01
2023-03-29T16:51:26.510Z,40.23
2023-03-29T16:54:29.745Z,41.82
2023-03-29T16:57:32.711Z,39.87
2023-03-29T17:00:35.689Z,40.09
2023-03-29T17:03:39.186Z,40.99
2023-03-29T17:06:42.167Z,42.33
2023-03-29T17:09:46.398Z,41.67
2023-03-29T17:12:49.878Z,42.27
2023-03-29T17:15:54.937Z,41.73
2023-03-29T17:19:00.545Z,42.40
2023-03-29T17:22:03.608Z,42.70
2023-03-29T17:25:07.715Z,42.72
2023-03-29T17:28:11.542Z,42.66
2023-03-29T17:31:14.647Z,42.75
2023-03-29T17:34:19.316Z,44.14
2023-03-29T17:37:22.868Z,43.81
2023-03-29T17:40:27.142Z,44.08
2023-03-29T17:43:30.870Z,44.43
2023-03-29T17:46:34.343Z,44.94
2023-03-29T17:49:37.601Z,45.84
2023-03-29T17:52:40.618Z,50.51
2023-03-29T17:55:44.072Z,49.08
2023-03-29T17:58:49.084Z,49.42
2023-03-29T18:01:52.625Z,47.53
2023-03-29T18:04:56.053Z,46.61
2023-03-29T18:07:58.690Z,45.62
2023-03-29T18:11:11.110Z,50.51
2023-03-29T18:14:14.181Z,49.65
2023-03-29T18:17:17.196Z,50.47
2023-03-29T18:20:21.339Z,52.59
2023-03-29T18:23:24.352Z,52.02
2023-03-29T18:26:28.569Z,50.61
2023-03-29T18:29:31.818Z,51.38
2023-03-29T18:32:35.002Z,51.14
2023-03-29T18:35:38.464Z,52.78
2023-03-29T18:38:43.683Z,52.25
2023-03-29T18:41:47.116Z,51.46
2023-03-29T18:44:50.411Z,52.42
2023-03-29T18:47:53.363Z,54.03
2023-03-29T18:50:57.205Z,55.16
2023-03-29T18:54:01.445Z,55.72
2023-03-29T18:57:04.341Z,53.24
2023-03-29T19:00:14.419Z,54.57
2023-03-29T19:03:17.996Z,54.15
2023-03-29T19:06:21.908Z,53.88
2023-03-29T19:09:24.832Z,55.00
2023-03-29T19:12:29.520Z,54.16
2023-03-29T19:15:34.716Z,53.36
2023-03-29T19:18:38.164Z,52.86
2023-03-29T19:21:41.727Z,52.68
2023-03-29T19:24:44.974Z,51.61
2023-03-29T19:27:48.055Z,53.21
2023-03-29T19:30:51.771Z,57.95
2023-03-29T19:33:55.071Z,56.43
2023-03-29T19:37:00.340Z,55.55
2023-03-29T19:40:06.585Z,55.42
2023-03-29T19:43:09.941Z,54.84
2023-03-29T19:46:15.589Z,54.76
2023-03-29T19:49:18.894Z,56.82
2023-03-29T19:52:24.104Z,58.03
2023-03-29T19:55:27.390Z,57.64
2023-03-29T19:58:30.640Z,58.35
2023-03-29T20:01:34.777Z,58.64
2023-03-29T20:04:38.066Z,59.65
2023-03-29T20:07:41.149Z,59.38
2023-03-29T20:10:44.249Z,58.54
2023-03-29T20:13:46.924Z,59.33
2023-03-29T20:16:50.732Z,59.75
2023-03-29T20:19:54.071Z,59.65
2023-03-29T20:23:04.640Z,59.55
2023-03-29T20:26:08.573Z,60.63
2023-03-29T20:29:11.981Z,59.24
2023-03-29T20:32:15.543Z,58.98
2023-03-29T20:35:18.478Z,61.64
2023-03-29T20:38:21.986Z,60.71
2023-03-29T20:41:25.847Z,60.17
2023-03-29T20:44:28.499Z,61.57
2023-03-29T20:47:31.710Z,62.05
2023-03-29T20:50:34.620Z,62.40
2023-03-29T20:53:37.660Z,62.19
2023-03-29T20:56:42.479Z,63.43
2023-03-29T20:59:46.287Z,62.97
2023-03-29T21:02:48.966Z,62.04
2023-03-29T21:05:55.653Z,61.48
2023-03-29T21:08:58.834Z,61.97
2023-03-29T21:12:02.744Z,60.75
2023-03-29T21:15:06.230Z,61.68
2023-03-29T21:18:09.167Z,62.11
2023-03-29T21:21:12.156Z,60.11
2023-03-29T21:24:15.041Z,59.65
2023-03-29T21:27:18.328Z,58.59
2023-03-29T21:30:21.596Z,57.83
2023-03-29T21:33:24.469Z,61.12
2023-03-29T21:36:27.420Z,62.25
2023-03-29T21:39:30.245Z,62.48
2023-03-29T21:42:34.172Z,62.64
2023-03-29T21:45:36.844Z,61.75
2023-03-29T21:48:39.969Z,61.39
2023-03-29T21:51:42.578Z,59.04
2023-03-29T21:54:45.616Z,57.61
2023-03-29T21:57:48.983Z,58.04
2023-03-29T22:00:52.605Z,58.32
2023-03-29T22:03:56.127Z,58.10
2023-03-29T22:06:58.993Z,57.69
2023-03-29T22:10:04.354Z,57.61
2023-03-29T22:13:08.386Z,56.94
2023-03-29T22:16:18.278Z,56.20
2023-03-29T22:19:20.926Z,55.86
2023-03-29T22:22:24.457Z,55.34
2023-03-29T22:25:27.195Z,55.54
2023-03-29T22:28:30.811Z,55.91
2023-03-29T22:31:33.627Z,56.31
2023-03-29T22:34:36.667Z,55.89
2023-03-29T22:37:43.822Z,56.20
2023-03-29T22:40:47.371Z,56.76
2023-03-29T22:43:54.986Z,56.50
2023-03-29T22:46:57.878Z,57.40
2023-03-29T22:50:00.690Z,57.59
2023-03-29T22:53:03.705Z,58.21
2023-03-29T22:56:07.659Z,58.17
2023-03-29T22:59:11.083Z,58.48
2023-03-29T23:02:13.735Z,57.88
2023-03-29T23:05:16.837Z,57.74
2023-03-29T23:08:19.589Z,57.41
2023-03-29T23:11:22.968Z,57.47
2023-03-29T23:14:25.576Z,57.70
2023-03-29T23:17:28.543Z,56.78
2023-03-29T23:20:32.282Z,56.83
2023-03-29T23:23:35.571Z,56.98
2023-03-29T23:26:38.169Z,57.30
2023-03-29T23:29:42.311Z,57.13
2023-03-29T23:32:47.008Z,56.78
2023-03-29T23:35:50.460Z,56.54
2023-03-29T23:38:53.646Z,54.98
2023-03-29T23:41:57.091Z,53.87
2023-03-29T23:45:00.240Z,53.74
2023-03-29T23:48:03.734Z,52.55
2023-03-29T23:51:08.248Z,52.66
2023-03-29T23:54:12.974Z,52.07
2023-03-29T23:57:15.875Z,52.03
